createdAt,value
2023-05-15T00:00:39.668Z,100089.67
2023-05-15T00:03:31.611Z,100087.51
2023-05-15T00:06:03.516Z,100077.17
2023-05-15T00:08:35.287Z,100078.63
2023-05-15T00:11:07.200Z,100074.74
2023-05-15T00:13:39.518Z,100068.90
2023-05-15T00:16:11.606Z,100061.58
2023-05-15T00:18:43.504Z,100058.08
2023-05-15T00:21:15.475Z,100055.70
2023-05-15T00:23:47.573Z,100055.27
2023-05-15T00:26:19.276Z,100047.33
2023-05-15T00:28:51.293Z,100042.50
2023-05-15T00:31:23.171Z,100036.89
2023-05-15T00:33:54.910Z,100038.45
2023-05-15T00:36:26.664Z,100036.06
2023-05-15T00:38:58.434Z,100033.83
2023-05-15T00:41:32.491Z,100026.02
2023-05-15T00:44:06.184Z,100016.73
2023-05-15T00:46:39.333Z,100012.11
2023-05-15T00:49:13.729Z,100009.11
2023-05-15T00:51:45.796Z,100003.94
2023-05-15T00:54:17.558Z,100006.94
2023-05-15T00:56:50.821Z,100011.63
2023-05-15T00:59:23.854Z,100025.17
2023-05-15T01:01:55.693Z,100024.80
2023-05-15T01:04:27.702Z,100012.42
2023-05-15T01:06:59.414Z,100005.27
2023-05-15T01:09:34.192Z,100005.23
2023-05-15T01:12:08.689Z,100006.23
2023-05-15T01:14:40.481Z,100014.71
2023-05-15T01:17:12.380Z,100025.77
2023-05-15T01:19:46.564Z,100036.52
2023-05-15T01:22:42.510Z,100043.83
2023-05-15T01:25:46.123Z,100069.44
2023-05-15T01:28:23.351Z,100076.64
2023-05-15T01:30:58.975Z,100066.44
2023-05-15T01:33:35.606Z,100057.79
2023-05-15T01:36:14.591Z,100041.00
2023-05-15T01:38:51.488Z,100035.35
2023-05-15T01:41:28.412Z,100021.58
2023-05-15T01:44:05.935Z,100013.23
2023-05-15T01:46:43.968Z,100006.97
2023-05-15T01:49:20.052Z,100000.64
2023-05-15T01:51:56.106Z,99999.34
2023-05-15T01:54:29.615Z,99993.60
2023-05-15T01:57:02.839Z,99992.36
2023-05-15T01:59:36.218Z,99987.63
2023-05-15T02:02:10.701Z,99986.34
2023-05-15T02:04:44.709Z,99984.80
2023-05-15T02:07:18.878Z,99986.80
2023-05-15T02:09:52.050Z,99977.06
2023-05-15T02:12:25.113Z,99975.39
2023-05-15T02:14:58.845Z,99967.55
2023-05-15T02:17:31.378Z,99965.70
2023-05-15T02:20:05.048Z,99964.39
2023-05-15T02:22:37.021Z,99960.23
2023-05-15T02:25:09.726Z,99960.17
2023-05-15T02:27:49.517Z,99952.44
2023-05-15T02:30:35.355Z,99941.92
2023-05-15T02:33:19.575Z,99937.20
2023-05-15T02:35:58.084Z,99931.88
2023-05-15T02:38:34.688Z,99920.02
2023-05-15T02:41:08.789Z,99918.29
2023-05-15T02:43:42.923Z,99912.59
2023-05-15T02:46:16.419Z,99904.91
2023-05-15T02:48:49.289Z,99896.73
2023-05-15T02:51:19.990Z,99892.91
2023-05-15T02:53:51.716Z,99886.64
2023-05-15T02:56:23.472Z,99886.81
2023-05-15T02:58:55.453Z,99882.21
2023-05-15T03:01:27.313Z,99878.45
2023-05-15T03:03:59.111Z,99871.27
2023-05-15T03:06:31.569Z,99861.56
2023-05-15T03:09:03.472Z,99863.27
2023-05-15T03:11:35.708Z,99885.90
2023-05-15T03:14:07.466Z,99862.61
2023-05-15T03:16:39.530Z,99859.12
2023-05-15T03:19:11.528Z,99850.85
2023-05-15T03:21:43.337Z,99843.52
2023-05-15T03:24:15.183Z,99842.93
2023-05-15T03:26:46.891Z,99844.90
2023-05-15T03:29:18.593Z,99838.86
2023-05-15T03:31:50.647Z,99840.08
2023-05-15T03:34:22.486Z,99832.52
2023-05-15T03:36:54.231Z,99832.45
2023-05-15T03:39:25.989Z,99830.59
2023-05-15T03:41:57.728Z,99830.39
2023-05-15T03:44:29.773Z,99827.02
2023-05-15T03:47:02.636Z,99824.02
2023-05-15T03:49:35.047Z,99821.02
2023-05-15T03:52:09.972Z,99814.48
2023-05-15T03:54:40.756Z,99804.64
2023-05-15T03:57:13.245Z,99803.79
2023-05-15T03:59:44.951Z,99815.93
2023-05-15T04:02:16.661Z,99816.23
2023-05-15T04:04:48.846Z,99834.64
2023-05-15T04:07:20.836Z,99864.88
2023-05-15T04:09:52.538Z,99855.46
2023-05-15T04:12:27.148Z,99848.44
2023-05-15T04:15:00.218Z,99850.92
2023-05-15T04:17:31.966Z,99859.44
2023-05-15T04:20:04.137Z,99854.14
2023-05-15T04:22:36.004Z,99852.38
2023-05-15T04:25:09.131Z,99850.41
2023-05-15T04:27:41.346Z,99848.08
2023-05-15T04:30:14.436Z,99844.71
2023-05-15T04:32:46.375Z,99836.56
2023-05-15T04:35:18.167Z,99829.71
2023-05-15T04:37:50.016Z,99829.34
2023-05-15T04:40:21.749Z,99825.38
2023-05-15T04:42:53.857Z,99829.46
2023-05-15T04:45:25.700Z,99829.27
2023-05-15T04:47:57.763Z,99826.34
2023-05-15T04:50:29.628Z,99816.55
2023-05-15T04:53:01.377Z,99813.26
2023-05-15T04:55:33.769Z,99809.02
2023-05-15T04:58:05.672Z,99802.88
2023-05-15T05:00:37.446Z,99804.75
2023-05-15T05:03:09.206Z,99798.95
2023-05-15T05:05:41.457Z,99795.44
2023-05-15T05:08:13.252Z,99790.61
2023-05-15T05:10:45.095Z,99791.66
2023-05-15T05:13:16.835Z,99795.94
2023-05-15T05:15:48.576Z,99795.16
2023-05-15T05:18:20.420Z,99787.04
2023-05-15T05:20:59.548Z,99785.59
2023-05-15T05:23:32.135Z,99784.96
2023-05-15T05:26:05.401Z,99778.32
2023-05-15T05:28:38.010Z,99768.50
2023-05-15T05:31:09.889Z,99765.10
2023-05-15T05:33:42.286Z,99763.27
2023-05-15T05:36:13.989Z,99759.43
2023-05-15T05:38:46.040Z,99756.44
2023-05-15T05:41:19.284Z,99760.65
2023-05-15T05:43:50.956Z,99757.20
2023-05-15T05:46:22.839Z,99754.84
2023-05-15T05:48:54.826Z,99754.44
2023-05-15T05:51:26.529Z,99747.61
2023-05-15T05:53:58.400Z,99745.53
2023-05-15T05:56:30.654Z,99745.92
2023-05-15T05:59:02.785Z,99736.23
2023-05-15T06:01:34.494Z,99738.37
2023-05-15T06:04:06.632Z,99736.92
2023-05-15T06:06:38.530Z,99729.97
2023-05-15T06:09:10.328Z,99726.80
2023-05-15T06:11:42.760Z,99718.69
2023-05-15T06:14:14.547Z,99715.46
2023-05-15T06:16:46.395Z,99707.15
2023-05-15T06:19:18.336Z,99699.79
2023-05-15T06:21:50.295Z,99696.18
2023-05-15T06:24:21.987Z,99702.66
2023-05-15T06:26:54.115Z,99701.13
2023-05-15T06:29:25.927Z,99691.45
2023-05-15T06:31:57.701Z,99687.86
2023-05-15T06:34:30.215Z,99685.02
2023-05-15T06:37:02.792Z,99682.83
2023-05-15T06:39:34.526Z,99684.29
2023-05-15T06:42:06.941Z,99683.20
2023-05-15T06:44:39.850Z,99683.37
2023-05-15T06:47:11.730Z,99682.02
2023-05-15T06:49:43.627Z,99679.31
2023-05-15T06:52:15.739Z,99679.35
2023-05-15T06:54:48.428Z,99673.90
2023-05-15T06:57:20.296Z,99671.29
2023-05-15T06:59:52.046Z,99672.73
2023-05-15T07:02:23.923Z,99668.61
2023-05-15T07:04:56.234Z,99666.50
2023-05-15T07:07:28.122Z,99663.65
2023-05-15T07:09:59.966Z,99659.02
2023-05-15T07:12:32.812Z,99657.84
2023-05-15T07:15:04.762Z,99656.36
2023-05-15T07:17:36.709Z,99649.05
2023-05-15T07:20:10.463Z,99649.38
2023-05-15T07:22:55.012Z,99646.11
2023-05-15T07:25:28.022Z,99641.45
2023-05-15T07:28:00.195Z,99643.40
2023-05-15T07:30:32.074Z,99635.52
2023-05-15T07:33:03.941Z,99633.67
2023-05-15T07:35:35.796Z,99634.45
2023-05-15T07:38:07.525Z,99638.86
2023-05-15T07:40:39.616Z,99631.69
2023-05-15T07:43:11.417Z,99630.23
2023-05-15T07:45:43.484Z,99624.96
2023-05-15T07:48:20.035Z,99625.76
2023-05-15T07:50:52.333Z,99630.45
2023-05-15T07:53:24.210Z,99628.94
2023-05-15T07:55:56.418Z,99618.70
2023-05-15T07:58:28.904Z,99618.83
2023-05-15T08:01:00.711Z,99620.67
2023-05-15T08:03:33.896Z,99618.05
2023-05-15T08:06:08.075Z,99616.03
2023-05-15T08:08:39.840Z,99614.79
2023-05-15T08:11:11.461Z,99612.98
2023-05-15T08:13:43.244Z,99613.24
2023-05-15T08:16:14.998Z,99608.57
2023-05-15T08:18:46.859Z,99610.02
2023-05-15T08:21:18.712Z,99604.42
2023-05-15T08:23:50.704Z,99602.73
2023-05-15T08:26:22.509Z,99596.90
2023-05-15T08:28:54.286Z,99593.44
2023-05-15T08:31:26.032Z,99592.05
2023-05-15T08:33:57.979Z,99592.04
2023-05-15T08:36:29.859Z,99584.14
2023-05-15T08:39:01.739Z,99582.88
2023-05-15T08:41:40.901Z,99573.86
2023-05-15T08:44:13.977Z,99570.00
2023-05-15T08:46:44.462Z,99569.38
2023-05-15T08:49:23.366Z,99573.48
2023-05-15T08:51:56.481Z,99567.68
2023-05-15T08:54:28.889Z,99562.95
2023-05-15T08:57:01.163Z,99562.59
2023-05-15T08:59:33.262Z,99558.94
2023-05-15T09:02:05.312Z,99557.98
2023-05-15T09:04:37.501Z,99555.90
2023-05-15T09:07:11.391Z,99550.23
2023-05-15T09:09:44.175Z,99548.73
2023-05-15T09:12:15.865Z,99549.06
2023-05-15T09:14:48.128Z,99547.50
2023-05-15T09:17:19.916Z,99543.21
2023-05-15T09:19:51.583Z,99541.98
2023-05-15T09:22:25.824Z,99538.08
2023-05-15T09:24:58.160Z,99538.32
2023-05-15T09:27:29.991Z,99534.80
2023-05-15T09:30:12.440Z,99532.52
2023-05-15T09:32:44.775Z,99529.77
2023-05-15T09:35:32.197Z,99530.05
2023-05-15T09:38:05.756Z,99528.83
2023-05-15T09:40:37.478Z,99523.09
2023-05-15T09:43:10.808Z,99515.04
2023-05-15T09:45:43.159Z,99514.51
2023-05-15T09:48:15.698Z,99515.98
2023-05-15T09:50:47.858Z,99511.91
2023-05-15T09:53:21.381Z,99512.16
2023-05-15T09:55:55.120Z,99516.79
2023-05-15T09:58:26.836Z,99514.97
2023-05-15T10:01:02.734Z,99513.10
2023-05-15T10:03:34.620Z,99511.80
2023-05-15T10:06:07.027Z,99506.98
2023-05-15T10:08:41.625Z,99505.64
2023-05-15T10:11:14.041Z,99502.88
2023-05-15T10:13:46.283Z,99503.29
2023-05-15T10:16:20.940Z,99496.14
2023-05-15T10:18:53.916Z,99494.41
2023-05-15T10:21:26.856Z,99494.75
2023-05-15T10:24:01.021Z,99493.13
2023-05-15T10:26:39.193Z,99492.36
2023-05-15T10:29:12.932Z,99492.20
2023-05-15T10:31:46.399Z,99493.78
2023-05-15T10:34:19.475Z,99491.75
2023-05-15T10:36:52.711Z,99493.50
2023-05-15T10:39:25.291Z,99492.27
2023-05-15T10:41:59.425Z,99489.35
2023-05-15T10:44:31.244Z,99485.09
2023-05-15T10:47:04.650Z,99483.42
2023-05-15T10:49:36.854Z,99484.09
2023-05-15T10:52:10.061Z,99481.92
2023-05-15T10:54:42.165Z,99482.65
2023-05-15T10:57:15.165Z,99479.11
2023-05-15T10:59:46.918Z,99473.45
2023-05-15T11:02:26.364Z,99469.20
2023-05-15T11:04:59.337Z,99471.25
2023-05-15T11:07:31.131Z,99467.94
2023-05-15T11:10:23.004Z,99465.44
2023-05-15T11:13:02.665Z,99464.91
2023-05-15T11:15:44.475Z,99468.61
2023-05-15T11:18:16.979Z,99463.86
2023-05-15T11:21:11.172Z,99458.16
2023-05-15T11:23:43.927Z,99458.08
2023-05-15T11:26:15.469Z,99453.21
2023-05-15T11:28:47.884Z,99448.83
2023-05-15T11:31:30.524Z,99449.97
2023-05-15T11:34:07.588Z,99443.67
2023-05-15T11:36:41.279Z,99440.58
2023-05-15T11:39:14.223Z,99438.52
2023-05-15T11:41:46.073Z,99436.14
2023-05-15T11:44:22.778Z,99434.52
2023-05-15T11:46:56.120Z,99433.25
2023-05-15T11:49:29.285Z,99431.88
2023-05-15T11:52:02.102Z,99427.15
2023-05-15T11:54:32.339Z,99425.89
2023-05-15T11:57:05.076Z,99422.40
2023-05-15T11:59:37.879Z,99417.58
2023-05-15T12:02:09.785Z,99419.95
2023-05-15T12:04:41.794Z,99421.23
2023-05-15T12:07:13.968Z,99420.40
2023-05-15T12:09:50.917Z,99418.50
2023-05-15T12:12:26.779Z,99416.39
2023-05-15T12:15:01.610Z,99413.95
2023-05-15T12:17:34.047Z,99414.98
2023-05-15T12:20:10.541Z,99412.95
2023-05-15T12:22:42.976Z,99415.45
2023-05-15T12:25:16.357Z,99408.11
2023-05-15T12:27:48.366Z,99405.98
2023-05-15T12:30:21.170Z,99402.89
2023-05-15T12:32:51.991Z,99399.02
2023-05-15T12:35:23.771Z,99401.58
2023-05-15T12:37:55.607Z,99396.71
2023-05-15T12:40:28.110Z,99395.61
2023-05-15T12:43:00.076Z,99393.91
2023-05-15T12:45:35.270Z,99393.27
2023-05-15T12:48:08.093Z,99390.27
2023-05-15T12:50:40.382Z,99385.04
2023-05-15T12:53:15.843Z,99383.09
2023-05-15T12:55:48.833Z,99380.77
2023-05-15T12:58:21.317Z,99379.30
2023-05-15T13:00:54.899Z,99376.21
2023-05-15T13:03:27.991Z,99376.99
2023-05-15T13:06:00.373Z,99371.02
2023-05-15T13:08:32.484Z,99369.77
2023-05-15T13:11:04.338Z,99362.27
2023-05-15T13:13:47.200Z,99364.81
2023-05-15T13:16:29.462Z,99359.70
2023-05-15T13:19:01.626Z,99362.77
2023-05-15T13:21:33.862Z,99356.24
2023-05-15T13:24:06.280Z,99358.80
2023-05-15T13:26:38.043Z,99348.91
2023-05-15T13:29:10.249Z,99353.59
2023-05-15T13:31:42.287Z,99353.13
2023-05-15T13:34:13.985Z,99351.05
2023-05-15T13:36:45.683Z,99348.13
2023-05-15T13:39:17.562Z,99346.54
2023-05-15T13:41:49.262Z,99340.56
2023-05-15T13:44:21.068Z,99338.09
2023-05-15T13:46:52.863Z,99335.94
2023-05-15T13:49:25.623Z,99336.59
2023-05-15T13:51:55.766Z,99338.38
2023-05-15T13:54:27.551Z,99338.55
2023-05-15T13:56:59.226Z,99336.70
2023-05-15T13:59:31.357Z,99335.50
2023-05-15T14:02:03.002Z,99341.20
2023-05-15T14:04:35.154Z,99337.52
2023-05-15T14:07:07.485Z,99339.30
2023-05-15T14:09:39.956Z,99336.58
2023-05-15T14:12:12.284Z,99334.30
2023-05-15T14:14:46.075Z,99330.11
2023-05-15T14:17:18.268Z,99329.45
2023-05-15T14:19:50.248Z,99328.87
2023-05-15T14:22:24.781Z,99326.30
2023-05-15T14:24:56.863Z,99329.73
2023-05-15T14:27:28.775Z,99330.25
2023-05-15T14:30:01.325Z,99333.64
2023-05-15T14:32:33.421Z,99332.96
2023-05-15T14:35:05.824Z,99332.55
2023-05-15T14:37:39.244Z,99330.06
2023-05-15T14:40:14.041Z,99329.08
2023-05-15T14:42:45.869Z,99328.58
2023-05-15T14:45:17.525Z,99326.19
2023-05-15T14:47:49.592Z,99324.89
2023-05-15T14:50:22.495Z,99324.69
2023-05-15T14:52:54.681Z,99322.79
2023-05-15T14:55:26.568Z,99327.17
2023-05-15T14:58:00.454Z,99325.41
2023-05-15T15:00:32.221Z,99327.38
2023-05-15T15:03:03.994Z,99323.16
2023-05-15T15:05:35.898Z,99322.71
2023-05-15T15:08:09.625Z,99320.59
2023-05-15T15:10:43.429Z,99321.23
2023-05-15T15:13:16.488Z,99318.58
2023-05-15T15:15:48.906Z,99323.33
2023-05-15T15:18:21.213Z,99321.20
2023-05-15T15:20:52.997Z,99321.86
2023-05-15T15:23:25.026Z,99324.33
2023-05-15T15:25:56.860Z,99331.23
2023-05-15T15:28:33.537Z,99331.52
2023-05-15T15:31:06.024Z,99330.83
2023-05-15T15:33:38.116Z,99327.73
2023-05-15T15:36:10.398Z,99328.16
2023-05-15T15:38:43.801Z,99327.27
2023-05-15T15:41:15.700Z,99325.65
2023-05-15T15:43:47.429Z,99325.45
2023-05-15T15:46:19.361Z,99321.23
2023-05-15T15:48:51.319Z,99325.81
2023-05-15T15:51:23.126Z,99323.88
2023-05-15T15:53:55.221Z,99322.15
2023-05-15T15:56:27.054Z,99323.16
2023-05-15T15:58:58.978Z,99318.00
2023-05-15T16:01:31.270Z,99315.02
2023-05-15T16:04:03.758Z,99320.80
2023-05-15T16:06:35.941Z,99316.92
2023-05-15T16:09:07.937Z,99318.17
2023-05-15T16:11:39.627Z,99319.94
2023-05-15T16:14:11.913Z,99319.41
2023-05-15T16:16:43.773Z,99321.77
2023-05-15T16:19:16.495Z,99320.41
2023-05-15T16:21:48.087Z,99323.14
2023-05-15T16:24:19.793Z,99320.30
2023-05-15T16:26:52.210Z,99322.48
2023-05-15T16:29:24.041Z,99321.02
2023-05-15T16:31:57.230Z,99319.13
2023-05-15T16:34:29.332Z,99321.02
2023-05-15T16:37:01.226Z,99319.20
2023-05-15T16:39:38.270Z,99319.43
2023-05-15T16:42:10.088Z,99315.29
2023-05-15T16:44:42.312Z,99320.08
2023-05-15T16:47:14.210Z,99323.95
2023-05-15T16:49:48.271Z,99325.77
2023-05-15T16:52:22.231Z,99329.11
2023-05-15T16:54:56.375Z,99330.09
2023-05-15T16:57:28.163Z,99332.26
2023-05-15T16:59:59.994Z,99327.91
2023-05-15T17:02:31.181Z,99332.63
2023-05-15T17:05:03.635Z,99337.20
2023-05-15T17:07:35.430Z,99337.52
2023-05-15T17:10:08.497Z,99338.03
2023-05-15T17:12:40.727Z,99342.09
2023-05-15T17:15:13.998Z,99340.55
2023-05-15T17:17:45.784Z,99343.79
2023-05-15T17:20:17.739Z,99345.04
2023-05-15T17:22:50.812Z,99348.22
2023-05-15T17:25:22.614Z,99350.27
2023-05-15T17:27:54.454Z,99353.23
2023-05-15T17:30:26.907Z,99347.63
2023-05-15T17:32:59.592Z,99356.75
2023-05-15T17:35:33.189Z,99359.94
2023-05-15T17:38:05.919Z,99363.95
2023-05-15T17:40:39.082Z,99365.65
2023-05-15T17:43:10.902Z,99365.67
2023-05-15T17:45:43.291Z,99362.91
2023-05-15T17:48:15.107Z,99363.39
2023-05-15T17:50:47.037Z,99369.60
2023-05-15T17:53:18.882Z,99374.02
2023-05-15T17:55:51.051Z,99375.44
2023-05-15T17:58:23.221Z,99372.89
2023-05-15T18:00:55.124Z,99381.19
2023-05-15T18:03:27.230Z,99377.85
2023-05-15T18:05:59.558Z,99382.36
2023-05-15T18:08:31.348Z,99385.77
2023-05-15T18:11:11.062Z,99387.67
2023-05-15T18:13:50.049Z,99392.05
2023-05-15T18:16:22.159Z,99389.11
2023-05-15T18:18:54.279Z,99392.10
2023-05-15T18:21:26.087Z,99394.55
2023-05-15T18:23:57.849Z,99398.80
2023-05-15T18:26:31.241Z,99397.34
2023-05-15T18:29:03.322Z,99402.57
2023-05-15T18:31:35.370Z,99405.43
2023-05-15T18:34:07.447Z,99410.86
2023-05-15T18:36:39.413Z,99412.55
2023-05-15T18:39:11.225Z,99414.89
2023-05-15T18:41:43.750Z,99417.27
2023-05-15T18:44:15.607Z,99422.08
2023-05-15T18:46:47.502Z,99427.33
2023-05-15T18:49:19.222Z,99425.83
2023-05-15T18:51:50.898Z,99426.77
2023-05-15T18:54:22.718Z,99434.77
2023-05-15T18:56:54.522Z,99431.94
2023-05-15T18:59:27.020Z,99438.13
2023-05-15T19:01:58.803Z,99440.13
2023-05-15T19:04:30.628Z,99444.79
2023-05-15T19:07:02.413Z,99445.05
2023-05-15T19:09:34.288Z,99449.73
2023-05-15T19:12:06.580Z,99452.39
2023-05-15T19:14:38.399Z,99455.70
2023-05-15T19:17:10.102Z,99454.79
2023-05-15T19:19:42.026Z,99454.92
2023-05-15T19:22:14.084Z,99463.61
2023-05-15T19:24:45.964Z,99458.13
2023-05-15T19:27:17.719Z,99458.80
2023-05-15T19:29:49.821Z,99460.40
2023-05-15T19:32:21.871Z,99463.74
2023-05-15T19:34:53.795Z,99468.95
2023-05-15T19:37:25.678Z,99469.97
2023-05-15T19:39:57.872Z,99471.61
2023-05-15T19:42:29.761Z,99469.92
2023-05-15T19:45:01.558Z,99473.79
2023-05-15T19:47:33.497Z,99473.90
2023-05-15T19:50:06.315Z,99475.05
2023-05-15T19:52:38.519Z,99477.81
2023-05-15T19:55:11.797Z,99483.86
2023-05-15T19:57:44.936Z,99486.65
2023-05-15T20:00:21.119Z,99489.80
2023-05-15T20:02:56.436Z,99489.63
2023-05-15T20:05:30.652Z,99493.79
2023-05-15T20:08:03.379Z,99492.46
2023-05-15T20:10:37.653Z,99498.27
2023-05-15T20:13:11.307Z,99491.45
2023-05-15T20:15:43.516Z,99490.46
2023-05-15T20:18:16.097Z,99494.31
2023-05-15T20:20:47.846Z,99497.48
2023-05-15T20:23:20.206Z,99494.43
2023-05-15T20:25:52.900Z,99493.85
2023-05-15T20:28:25.973Z,99497.04
2023-05-15T20:31:01.781Z,99498.91
2023-05-15T20:33:34.211Z,99501.07
2023-05-15T20:36:06.275Z,99498.45
2023-05-15T20:38:40.487Z,99499.21
2023-05-15T20:41:12.319Z,99501.72
2023-05-15T20:43:44.615Z,99503.37
2023-05-15T20:46:16.967Z,99497.98
2023-05-15T20:48:48.986Z,99495.23
2023-05-15T20:51:21.726Z,99490.52
2023-05-15T20:53:51.942Z,99492.83
2023-05-15T20:56:23.846Z,99498.61
2023-05-15T20:58:56.850Z,99502.16
2023-05-15T21:01:30.877Z,99505.23
2023-05-15T21:04:02.939Z,99507.81
2023-05-15T21:06:34.779Z,99505.74
2023-05-15T21:09:07.579Z,99514.50
2023-05-15T21:11:39.866Z,99513.05
2023-05-15T21:14:11.757Z,99511.94
2023-05-15T21:16:44.170Z,99515.87
2023-05-15T21:19:16.393Z,99517.69
2023-05-15T21:21:48.424Z,99510.09
2023-05-15T21:24:21.395Z,99510.27
2023-05-15T21:26:53.043Z,99509.83
2023-05-15T21:29:24.814Z,99511.08
2023-05-15T21:31:57.247Z,99516.73
2023-05-15T21:34:29.014Z,99520.19
2023-05-15T21:37:00.885Z,99517.83
2023-05-15T21:39:32.875Z,99513.93
2023-05-15T21:42:04.958Z,99512.80
2023-05-15T21:44:37.144Z,99514.77
2023-05-15T21:47:09.394Z,99513.04
2023-05-15T21:49:41.288Z,99515.98
2023-05-15T21:52:13.820Z,99516.70
2023-05-15T21:54:46.149Z,99518.91
2023-05-15T21:57:18.009Z,99517.89
2023-05-15T21:59:49.727Z,99519.33
2023-05-15T22:02:22.479Z,99517.11
2023-05-15T22:04:54.522Z,99514.98
2023-05-15T22:07:26.325Z,99515.31
2023-05-15T22:09:58.137Z,99516.20
2023-05-15T22:12:29.873Z,99525.36
2023-05-15T22:15:02.356Z,99524.94
2023-05-15T22:17:36.244Z,99525.13
2023-05-15T22:20:11.416Z,99526.66
2023-05-15T22:22:44.797Z,99532.52
2023-05-15T22:25:16.501Z,99528.77
2023-05-15T22:27:48.877Z,99522.13
2023-05-15T22:30:20.947Z,99520.33
2023-05-15T22:32:52.742Z,99519.19
2023-05-15T22:35:25.152Z,99512.52
2023-05-15T22:37:57.212Z,99514.81
2023-05-15T22:40:29.132Z,99518.52
2023-05-15T22:43:01.042Z,99521.55
2023-05-15T22:45:32.827Z,99518.09
2023-05-15T22:48:04.681Z,99519.11
2023-05-15T22:50:36.856Z,99514.98
2023-05-15T22:53:09.114Z,99517.55
2023-05-15T22:55:40.836Z,99513.69
2023-05-15T22:58:12.682Z,99516.02
2023-05-15T23:00:44.590Z,99515.70
2023-05-15T23:03:16.357Z,99514.34
2023-05-15T23:05:48.670Z,99512.69
2023-05-15T23:08:20.422Z,99510.42
2023-05-15T23:10:53.132Z,99505.85
2023-05-15T23:13:23.515Z,99507.59
2023-05-15T23:15:55.373Z,99511.13
2023-05-15T23:18:27.138Z,99510.85
2023-05-15T23:20:58.872Z,99514.60
2023-05-15T23:23:30.572Z,99516.53
2023-05-15T23:26:02.276Z,99521.74
2023-05-15T23:28:34.043Z,99525.93
2023-05-15T23:31:05.832Z,99522.60
2023-05-15T23:33:37.696Z,99523.79
2023-05-15T23:36:09.891Z,99523.11
2023-05-15T23:38:42.176Z,99527.83
2023-05-15T23:41:13.942Z,99527.58
2023-05-15T23:43:45.653Z,99523.35
2023-05-15T23:46:17.453Z,99526.07
2023-05-15T23:48:49.691Z,99528.80
2023-05-15T23:51:22.124Z,99528.41
2023-05-15T23:53:53.890Z,99533.45
2023-05-15T23:56:25.534Z,99533.80
2023-05-15T23:58:57.187Z,99532.38
